Time;durP1;ratioP1;P1;durP2;ratioP2;P2;SDS_P1;SDS_P2;PMS_P1;PMS_P2;Temp;Humidity;BMP_temperature;BMP_pressure;BME280_temperature;BME280_humidity;BME280_pressure;Samples;Min_cycle;Max_cycle;Signal;HPM_P1;HPM_P2
2024/03/31 00:00:18;;;;;;;3.03;1.95;;;15.70;63.60;;;;;;4998632;28;20566;-84
2024/03/31 00:02:48;;;;;;;3.28;2.20;;;15.70;63.90;;;;;;5001358;28;20084;-84
2024/03/31 00:05:14;;;;;;;2.85;2.17;;;15.70;63.70;;;;;;4998558;28;20428;-84
2024/03/31 00:07:40;;;;;;;2.80;2.10;;;15.70;63.70;;;;;;4998972;28;20038;-84
2024/03/31 00:10:06;;;;;;;2.78;1.95;;;15.70;63.80;;;;;;5000499;28;20045;-84
2024/03/31 00:12:32;;;;;;;2.50;1.77;;;15.70;63.70;;;;;;4993620;28;20031;-85
2024/03/31 00:14:58;;;;;;;3.20;2.20;;;15.70;63.70;;;;;;4992906;28;20125;-81
2024/03/31 00:17:25;;;;;;;2.72;1.80;;;15.60;63.70;;;;;;4986653;28;20113;-82
2024/03/31 00:19:52;;;;;;;3.30;1.98;;;15.60;64.30;;;;;;4995601;28;20049;-81
2024/03/31 00:22:18;;;;;;;2.33;1.80;;;15.60;63.90;;;;;;4997183;28;20096;-81
2024/03/31 00:24:44;;;;;;;5.15;1.92;;;15.60;63.90;;;;;;4996545;28;20040;-81
2024/03/31 00:27:10;;;;;;;3.83;2.17;;;15.60;64.10;;;;;;4995851;28;20441;-80
2024/03/31 00:29:36;;;;;;;6.43;2.50;;;15.60;64.50;;;;;;4992052;28;20030;-81
2024/03/31 00:32:04;;;;;;;3.58;2.50;;;15.60;64.00;;;;;;4968471;28;20521;-81
2024/03/31 00:34:30;;;;;;;5.43;2.40;;;15.60;64.00;;;;;;4995202;28;20096;-80
2024/03/31 00:36:56;;;;;;;3.15;1.92;;;15.60;64.10;;;;;;4996314;28;20033;-81
2024/03/31 00:39:22;;;;;;;3.75;1.90;;;15.60;64.00;;;;;;4996817;28;20033;-81
2024/03/31 00:41:48;;;;;;;2.85;2.20;;;15.60;64.30;;;;;;4991699;28;20397;-81
2024/03/31 00:44:14;;;;;;;4.35;2.30;;;15.60;64.20;;;;;;4990924;28;20039;-81
2024/03/31 00:46:40;;;;;;;6.43;2.30;;;15.60;64.10;;;;;;4978287;28;20042;-81
2024/03/31 00:49:06;;;;;;;3.85;2.55;;;15.50;64.00;;;;;;4995565;28;20038;-81
2024/03/31 00:51:32;;;;;;;4.20;2.60;;;15.50;63.90;;;;;;4978713;28;20037;-86
2024/03/31 00:53:58;;;;;;;4.30;2.90;;;15.50;63.90;;;;;;4976549;28;20062;-83
2024/03/31 00:56:24;;;;;;;3.28;2.50;;;15.50;63.90;;;;;;4984619;28;20034;-84
2024/03/31 00:58:50;;;;;;;5.45;2.97;;;15.50;63.90;;;;;;4995769;28;20049;-85
2024/03/31 01:01:18;;;;;;;2.70;2.50;;;15.40;63.90;;;;;;5012312;28;20061;-88
2024/03/31 01:03:44;;;;;;;3.95;2.83;;;15.40;63.90;;;;;;5012946;28;20390;-85
2024/03/31 01:06:19;;;;;;;3.78;3.10;;;15.40;64.00;;;;;;5008158;28;20061;-84
2024/03/31 01:08:48;;;;;;;3.72;3.03;;;15.40;64.00;;;;;;5012638;28;20516;-86
2024/03/31 01:11:15;;;;;;;3.53;2.67;;;15.40;63.90;;;;;;5011893;28;20039;-83
2024/03/31 01:13:41;;;;;;;6.25;3.47;;;15.40;63.80;;;;;;4999964;28;20165;-83
2024/03/31 01:16:07;;;;;;;6.32;3.60;;;15.40;63.90;;;;;;4965882;28;20028;-84
2024/03/31 01:18:34;;;;;;;5.10;3.63;;;15.30;63.90;;;;;;4996778;28;20081;-83
2024/03/31 01:21:03;;;;;;;4.82;3.38;;;15.30;64.00;;;;;;4992128;28;20548;-83
2024/03/31 01:23:38;;;;;;;5.50;3.58;;;15.30;64.00;;;;;;4977834;28;20040;-84
2024/03/31 01:26:04;;;;;;;4.88;3.75;;;15.30;64.00;;;;;;4991973;28;20043;-84
2024/03/31 01:28:33;;;;;;;4.65;3.85;;;15.30;64.10;;;;;;4962052;28;20039;-83
2024/03/31 01:30:59;;;;;;;5.93;4.07;;;15.20;64.00;;;;;;4998112;28;20377;-88
2024/03/31 01:33:25;;;;;;;4.47;3.78;;;15.20;64.10;;;;;;4995751;28;20034;-87
2024/03/31 01:35:51;;;;;;;6.13;4.25;;;15.20;64.00;;;;;;4975860;28;20458;-86
2024/03/31 01:38:17;;;;;;;5.30;4.38;;;15.20;64.10;;;;;;5000585;28;20496;-89
2024/03/31 01:40:43;;;;;;;5.80;4.43;;;15.20;64.20;;;;;;4995685;28;20034;-85
2024/03/31 01:43:09;;;;;;;6.03;4.63;;;15.20;64.00;;;;;;4981308;28;20032;-87
2024/03/31 01:45:35;;;;;;;7.30;4.70;;;15.20;64.10;;;;;;4997715;28;20034;-86
2024/03/31 01:48:02;;;;;;;5.55;4.75;;;15.10;64.10;;;;;;5011492;28;20042;-88
2024/03/31 01:50:28;;;;;;;8.10;5.30;;;15.10;64.10;;;;;;4994741;28;20087;-90
2024/03/31 01:52:54;;;;;;;6.05;4.53;;;15.10;64.10;;;;;;4995294;28;20842;-85
2024/03/31 01:55:20;;;;;;;5.90;4.10;;;15.10;64.20;;;;;;5000889;28;20030;-84
2024/03/31 01:57:46;;;;;;;6.80;4.60;;;15.10;64.30;;;;;;4975831;28;20037;-82
2024/03/31 02:00:12;;;;;;;5.25;4.22;;;15.10;64.30;;;;;;4975229;28;20030;-84
2024/03/31 02:02:43;;;;;;;7.20;4.75;;;15.00;64.20;;;;;;4954260;28;20397;-85
2024/03/31 02:05:09;;;;;;;7.90;4.63;;;15.10;64.30;;;;;;4959711;28;20039;-85
2024/03/31 02:07:36;;;;;;;5.32;4.20;;;15.00;64.30;;;;;;4993046;28;20045;-83
2024/03/31 02:10:02;;;;;;;6.18;4.22;;;15.00;64.30;;;;;;4997228;28;20034;-84
2024/03/31 02:12:28;;;;;;;5.82;4.22;;;15.00;64.40;;;;;;4992107;28;20097;-84
2024/03/31 02:14:54;;;;;;;6.18;4.00;;;15.00;64.50;;;;;;4989440;28;20038;-83
2024/03/31 02:17:20;;;;;;;14.95;3.97;;;15.00;64.70;;;;;;4983283;28;20035;-84
2024/03/31 02:19:46;;;;;;;5.47;4.22;;;15.00;64.70;;;;;;4989438;28;20050;-80
2024/03/31 02:22:17;;;;;;;5.18;4.05;;;15.00;64.70;;;;;;5010584;28;20092;-83
2024/03/31 02:24:43;;;;;;;4.88;3.20;;;15.00;64.90;;;;;;5000272;28;20396;-83
2024/03/31 02:27:09;;;;;;;5.03;3.53;;;14.90;64.70;;;;;;5000420;28;20046;-83
2024/03/31 02:29:35;;;;;;;5.53;3.83;;;14.90;64.80;;;;;;4989108;28;20054;-83
2024/03/31 02:32:02;;;;;;;4.72;3.70;;;14.90;64.80;;;;;;4984068;28;20153;-82
2024/03/31 02:34:28;;;;;;;4.13;3.60;;;14.90;64.80;;;;;;4999801;28;20054;-83
2024/03/31 02:36:54;;;;;;;4.10;3.45;;;14.90;64.90;;;;;;4996522;28;20038;-83
2024/03/31 02:39:20;;;;;;;4.78;3.60;;;14.90;64.80;;;;;;4978822;28;20524;-82
2024/03/31 02:41:46;;;;;;;4.38;3.05;;;14.80;64.90;;;;;;4991071;28;20042;-81
2024/03/31 02:44:12;;;;;;;6.03;3.47;;;14.90;64.90;;;;;;5009772;28;20093;-86
2024/03/31 02:46:38;;;;;;;4.85;3.55;;;14.80;65.00;;;;;;4980040;28;20035;-86
2024/03/31 02:49:04;;;;;;;4.57;3.25;;;14.90;65.00;;;;;;4980931;28;20385;-82
2024/03/31 02:51:30;;;;;;;5.40;3.58;;;14.80;65.00;;;;;;4980608;28;20113;-82
2024/03/31 02:53:56;;;;;;;5.22;3.53;;;14.80;65.10;;;;;;4991626;28;20501;-83
2024/03/31 02:56:22;;;;;;;5.13;3.50;;;14.80;65.00;;;;;;4993907;28;20041;-84
2024/03/31 02:58:48;;;;;;;4.65;3.13;;;14.80;65.00;;;;;;4959753;28;20978;-84
2024/03/31 03:01:15;;;;;;;4.35;2.80;;;14.80;65.10;;;;;;4998833;28;20042;-89
2024/03/31 03:03:43;;;;;;;5.65;3.60;;;14.80;65.20;;;;;;4964804;28;20094;-83
2024/03/31 03:06:09;;;;;;;4.07;2.90;;;14.70;65.20;;;;;;4974847;28;20038;-83
2024/03/31 03:08:36;;;;;;;3.90;2.75;;;14.80;65.30;;;;;;5003526;28;20117;-83
2024/03/31 03:11:03;;;;;;;3.88;2.90;;;14.70;65.30;;;;;;4985570;28;20060;-84
2024/03/31 03:13:29;;;;;;;3.78;3.03;;;14.70;65.40;;;;;;5013263;28;20517;-92
2024/03/31 03:15:55;;;;;;;3.30;3.00;;;14.70;65.40;;;;;;4991623;28;20534;-90
2024/03/31 03:18:21;;;;;;;5.25;3.15;;;14.70;65.30;;;;;;4994854;28;20065;-84
2024/03/31 03:20:55;;;;;;;4.00;2.85;;;14.70;65.40;;;;;;4964684;28;20072;-85
2024/03/31 03:23:21;;;;;;;4.78;3.40;;;14.70;65.50;;;;;;4990114;28;20039;-84
2024/03/31 03:25:54;;;;;;;4.78;3.00;;;14.60;65.40;;;;;;4964243;28;20038;-84
2024/03/31 03:28:20;;;;;;;6.03;3.50;;;14.70;65.50;;;;;;4997130;28;20033;-84
2024/03/31 03:30:47;;;;;;;5.25;2.90;;;14.60;65.50;;;;;;4997297;28;20691;-83
2024/03/31 03:33:15;;;;;;;4.18;3.00;;;14.60;65.50;;;;;;4980338;28;20030;-82
2024/03/31 03:35:41;;;;;;;5.32;3.13;;;14.60;65.60;;;;;;4992162;28;20039;-82
2024/03/31 03:38:09;;;;;;;3.97;3.15;;;14.60;65.70;;;;;;4999136;28;20121;-82
2024/03/31 03:40:36;;;;;;;4.40;2.90;;;14.60;65.70;;;;;;4979592;28;20077;-82
2024/03/31 03:43:03;;;;;;;4.95;3.17;;;14.60;65.70;;;;;;4992115;28;20060;-82
2024/03/31 03:45:29;;;;;;;4.15;3.10;;;14.60;65.70;;;;;;4992862;28;20038;-82
2024/03/31 03:47:55;;;;;;;4.80;3.25;;;14.60;65.70;;;;;;4984094;28;20049;-82
2024/03/31 03:50:21;;;;;;;4.60;2.92;;;14.50;65.60;;;;;;4984298;28;20039;-83
2024/03/31 03:52:48;;;;;;;4.70;2.92;;;14.60;65.60;;;;;;5007884;28;20065;-82
2024/03/31 03:55:14;;;;;;;3.88;2.97;;;14.50;65.70;;;;;;4993142;28;20041;-82
2024/03/31 03:57:40;;;;;;;5.18;3.10;;;14.60;65.70;;;;;;4965708;28;20039;-82
2024/03/31 04:00:06;;;;;;;4.13;3.08;;;14.50;65.70;;;;;;4959770;28;20686;-81
2024/03/31 04:02:41;;;;;;;3.80;2.92;;;14.50;65.80;;;;;;4987521;28;20129;-82
2024/03/31 04:05:08;;;;;;;4.00;3.20;;;14.50;65.70;;;;;;5012099;28;20026;-81
2024/03/31 04:07:34;;;;;;;3.90;2.90;;;14.50;65.70;;;;;;4994584;28;20045;-81
2024/03/31 04:10:00;;;;;;;4.13;3.17;;;14.50;65.80;;;;;;4975190;28;20030;-81
2024/03/31 04:12:26;;;;;;;5.70;3.10;;;14.50;65.80;;;;;;5009532;28;20161;-81
2024/03/31 04:14:52;;;;;;;4.43;2.90;;;14.50;65.90;;;;;;4995359;28;20428;-84
2024/03/31 04:17:18;;;;;;;4.13;3.30;;;14.50;66.00;;;;;;4994217;28;20066;-82
2024/03/31 04:19:44;;;;;;;3.88;2.92;;;14.50;65.90;;;;;;4991032;28;20049;-81
2024/03/31 04:22:11;;;;;;;5.43;3.05;;;14.50;66.10;;;;;;4991611;28;20038;-81
2024/03/31 04:24:37;;;;;;;2.95;2.65;;;14.50;66.00;;;;;;4977207;28;20081;-82
2024/03/31 04:27:03;;;;;;;4.15;3.25;;;14.50;66.10;;;;;;4978347;28;20038;-81
2024/03/31 04:29:29;;;;;;;5.07;3.50;;;14.50;66.20;;;;;;4974487;28;20039;-81
2024/03/31 04:31:57;;;;;;;3.72;3.33;;;14.50;66.30;;;;;;4963540;28;20030;-81
2024/03/31 04:34:30;;;;;;;3.83;3.10;;;14.40;66.10;;;;;;4959963;28;20038;-81
2024/03/31 04:36:57;;;;;;;5.57;3.88;;;14.40;66.20;;;;;;4978922;28;20046;-81
2024/03/31 04:39:24;;;;;;;4.00;3.45;;;14.40;66.80;;;;;;4981795;28;20039;-82
2024/03/31 04:41:52;;;;;;;4.20;3.63;;;14.40;66.20;;;;;;4982218;28;20038;-86
2024/03/31 04:44:18;;;;;;;5.60;3.53;;;14.50;66.30;;;;;;4974794;28;20034;-84
2024/03/31 04:46:49;;;;;;;3.88;3.30;;;14.50;66.30;;;;;;4977911;28;20050;-83
2024/03/31 04:49:16;;;;;;;3.80;3.08;;;14.40;66.30;;;;;;5011268;28;20716;-86
2024/03/31 04:51:43;;;;;;;4.78;3.08;;;14.50;66.20;;;;;;5011493;28;20029;-83
2024/03/31 04:54:09;;;;;;;3.95;3.53;;;14.50;66.30;;;;;;4981778;28;20445;-83
2024/03/31 04:56:35;;;;;;;4.90;3.58;;;14.50;66.40;;;;;;4972645;28;20044;-84
2024/03/31 04:59:01;;;;;;;4.32;3.00;;;14.50;66.40;;;;;;4993440;28;20041;-85
2024/03/31 05:01:27;;;;;;;5.38;3.78;;;14.50;66.50;;;;;;4995004;28;20679;-85
2024/03/31 05:03:53;;;;;;;4.90;3.58;;;14.50;66.30;;;;;;4964353;28;20358;-86
2024/03/31 05:06:19;;;;;;;8.80;3.40;;;14.50;66.20;;;;;;4990009;28;20074;-86
2024/03/31 05:08:45;;;;;;;5.38;3.58;;;14.50;66.30;;;;;;4962869;28;20029;-83
2024/03/31 05:11:11;;;;;;;4.03;3.03;;;14.50;66.40;;;;;;4991158;28;20034;-82
2024/03/31 05:13:38;;;;;;;4.70;3.50;;;14.50;66.70;;;;;;4992073;28;20037;-83
2024/03/31 05:16:10;;;;;;;4.28;3.47;;;14.50;67.70;;;;;;4976704;28;20038;-77
2024/03/31 05:18:37;;;;;;;4.82;3.42;;;14.60;67.20;;;;;;4992551;28;20082;-77
2024/03/31 05:21:08;;;;;;;3.65;3.10;;;14.70;67.20;;;;;;4994696;28;20657;-77
2024/03/31 05:23:37;;;;;;;3.75;3.30;;;14.80;67.50;;;;;;4996503;28;20033;-77
2024/03/31 05:26:10;;;;;;;3.47;2.80;;;14.90;67.60;;;;;;4992574;28;20421;-77
2024/03/31 05:28:37;;;;;;;4.20;3.30;;;15.00;67.50;;;;;;4966826;28;20041;-77
2024/03/31 05:31:04;;;;;;;3.97;3.28;;;15.10;67.40;;;;;;5011073;28;20045;-78
2024/03/31 05:33:34;;;;;;;3.60;3.10;;;15.20;67.30;;;;;;4974195;28;20031;-78
2024/03/31 05:36:00;;;;;;;4.50;3.00;;;15.40;67.30;;;;;;4987087;28;20436;-76
2024/03/31 05:38:27;;;;;;;3.80;2.97;;;15.50;67.00;;;;;;4993650;28;20035;-77
2024/03/31 05:41:07;;;;;;;4.18;3.33;;;15.70;66.90;;;;;;4992871;28;21178;-77
2024/03/31 05:43:33;;;;;;;3.67;2.50;;;15.80;66.70;;;;;;5009474;28;20034;-80
2024/03/31 05:46:00;;;;;;;3.80;2.83;;;15.90;66.60;;;;;;5008976;28;20485;-79
2024/03/31 05:48:26;;;;;;;3.80;3.15;;;16.00;66.30;;;;;;4992852;28;20049;-78
2024/03/31 05:50:53;;;;;;;4.40;2.72;;;16.10;66.20;;;;;;5010202;28;20064;-82
2024/03/31 05:53:21;;;;;;;3.35;2.75;;;16.30;66.10;;;;;;4989555;28;20050;-82
2024/03/31 05:55:47;;;;;;;3.67;2.55;;;16.40;65.80;;;;;;4973653;28;20054;-86
2024/03/31 05:58:13;;;;;;;4.13;2.70;;;16.50;65.60;;;;;;4992115;28;20033;-84
2024/03/31 06:00:39;;;;;;;2.78;2.40;;;16.70;65.50;;;;;;4975962;28;20605;-90
2024/03/31 06:03:07;;;;;;;3.10;2.50;;;16.80;65.30;;;;;;5010258;28;20042;-82
2024/03/31 06:05:33;;;;;;;4.18;2.95;;;16.90;65.10;;;;;;5001986;28;20187;-84
2024/03/31 06:07:59;;;;;;;3.80;3.13;;;17.00;64.90;;;;;;5013699;28;20567;-85
2024/03/31 06:10:25;;;;;;;3.15;2.70;;;17.20;63.60;;;;;;4982760;28;20135;-86
2024/03/31 06:12:53;;;;;;;4.38;2.92;;;17.30;63.20;;;;;;4981340;28;20047;-83
2024/03/31 06:15:19;;;;;;;3.90;2.78;;;17.50;62.60;;;;;;4991777;28;20035;-83
2024/03/31 06:17:46;;;;;;;4.40;2.60;;;17.60;62.00;;;;;;4985344;28;20057;-87
2024/03/31 06:20:13;;;;;;;3.97;2.70;;;17.70;61.80;;;;;;4971460;28;20466;-82
2024/03/31 06:22:40;;;;;;;5.55;2.60;;;17.80;61.40;;;;;;4999099;28;20038;-85
2024/03/31 06:25:07;;;;;;;4.38;3.10;;;17.90;61.20;;;;;;5015784;28;20037;-82
2024/03/31 06:27:36;;;;;;;4.32;2.97;;;18.10;60.50;;;;;;4965989;28;20035;-80
2024/03/31 06:30:03;;;;;;;4.25;3.17;;;18.20;60.00;;;;;;4983428;28;20064;-88
2024/03/31 06:32:32;;;;;;;5.38;3.20;;;18.30;59.80;;;;;;4987001;28;20565;-85
2024/03/31 06:34:58;;;;;;;4.72;2.90;;;18.40;59.50;;;;;;4993370;28;20059;-83
2024/03/31 06:37:24;;;;;;;3.67;2.92;;;18.50;59.00;;;;;;4978146;28;20054;-86
2024/03/31 06:39:52;;;;;;;4.07;2.60;;;18.60;58.80;;;;;;5009911;28;20050;-82
2024/03/31 06:42:20;;;;;;;3.20;2.80;;;18.70;58.50;;;;;;4996073;28;20034;-89
2024/03/31 06:44:50;;;;;;;3.28;2.42;;;18.80;58.20;;;;;;4978135;28;20597;-74
2024/03/31 06:47:16;;;;;;;4.00;2.17;;;18.90;58.20;;;;;;4992428;28;20065;-75
2024/03/31 06:49:43;;;;;;;2.30;2.05;;;19.00;59.30;;;;;;4970875;28;20496;-76
2024/03/31 06:52:10;;;;;;;2.72;2.17;;;19.10;59.60;;;;;;4957678;28;20034;-75
2024/03/31 06:54:36;;;;;;;4.05;2.50;;;19.30;59.70;;;;;;4976938;28;20108;-75
2024/03/31 06:57:05;;;;;;;3.53;2.40;;;19.40;59.70;;;;;;4982110;28;20125;-76
2024/03/31 06:59:31;;;;;;;3.38;2.17;;;19.50;59.60;;;;;;4971062;28;20038;-78
2024/03/31 07:01:57;;;;;;;4.18;2.33;;;19.60;59.40;;;;;;4992892;28;20038;-76
2024/03/31 07:04:23;;;;;;;3.13;2.05;;;19.70;59.30;;;;;;4997203;28;20058;-76
2024/03/31 07:06:50;;;;;;;3.03;2.33;;;19.80;59.00;;;;;;4988963;28;20043;-76
2024/03/31 07:09:17;;;;;;;4.72;2.22;;;19.90;58.70;;;;;;4990151;28;20128;-76
2024/03/31 07:11:44;;;;;;;2.55;2.20;;;20.00;58.50;;;;;;5007726;28;20165;-80
2024/03/31 07:14:11;;;;;;;4.07;2.22;;;20.10;58.40;;;;;;4986438;28;20862;-75
2024/03/31 07:16:39;;;;;;;2.30;2.10;;;20.10;58.30;;;;;;4959065;28;20042;-75
2024/03/31 07:19:05;;;;;;;5.43;2.50;;;20.30;58.50;;;;;;4987838;28;20050;-74
2024/03/31 07:21:33;;;;;;;2.47;2.10;;;20.40;57.80;;;;;;4964106;28;20034;-77
2024/03/31 07:23:59;;;;;;;2.85;2.10;;;20.40;57.50;;;;;;4974273;28;20050;-73
2024/03/31 07:26:26;;;;;;;4.30;2.70;;;20.50;57.40;;;;;;4974583;28;20042;-75
2024/03/31 07:28:54;;;;;;;4.63;2.63;;;20.60;57.00;;;;;;4964652;28;20039;-75
2024/03/31 07:31:21;;;;;;;3.38;2.65;;;20.70;56.60;;;;;;4989611;28;20117;-75
2024/03/31 07:33:47;;;;;;;3.95;3.08;;;20.80;56.20;;;;;;4972320;28;20035;-74
2024/03/31 07:36:13;;;;;;;3.10;2.80;;;20.80;55.90;;;;;;4988804;28;20031;-74
2024/03/31 07:38:39;;;;;;;5.57;2.80;;;20.80;55.40;;;;;;4971723;28;20190;-73
2024/03/31 07:41:05;;;;;;;3.08;2.60;;;20.90;55.50;;;;;;4994754;28;20087;-76
2024/03/31 07:43:31;;;;;;;3.60;2.70;;;21.00;55.30;;;;;;4995047;28;20040;-74
2024/03/31 07:45:57;;;;;;;5.55;2.80;;;21.00;55.10;;;;;;4995524;28;20057;-76
2024/03/31 07:48:23;;;;;;;2.78;2.58;;;21.10;55.10;;;;;;4992061;28;20633;-76
2024/03/31 07:50:49;;;;;;;4.60;2.70;;;21.20;55.00;;;;;;4985656;28;20468;-75
2024/03/31 07:53:15;;;;;;;3.28;2.78;;;21.30;55.10;;;;;;5008242;28;20125;-73
2024/03/31 07:55:41;;;;;;;3.90;2.60;;;21.30;54.60;;;;;;4996136;28;20583;-75
2024/03/31 07:58:07;;;;;;;2.60;2.40;;;21.30;54.60;;;;;;4973945;28;20049;-75
2024/03/31 08:00:33;;;;;;;3.40;2.28;;;21.40;54.40;;;;;;4990686;28;20061;-74
2024/03/31 08:02:59;;;;;;;5.63;3.08;;;21.50;54.20;;;;;;4976627;28;20038;-77
2024/03/31 08:05:25;;;;;;;4.22;2.83;;;21.50;53.20;;;;;;4982637;28;20044;-78
2024/03/31 08:07:51;;;;;;;4.72;2.95;;;21.50;52.50;;;;;;4992028;28;20050;-77
2024/03/31 08:10:17;;;;;;;4.15;2.78;;;21.50;52.00;;;;;;4992990;28;20026;-76
2024/03/31 08:12:43;;;;;;;4.30;2.75;;;21.50;52.00;;;;;;4976050;28;20044;-77
2024/03/31 08:15:09;;;;;;;3.28;2.55;;;21.50;51.80;;;;;;4986761;28;20077;-75
2024/03/31 08:17:35;;;;;;;4.95;2.70;;;21.50;51.90;;;;;;4988805;28;20038;-76
2024/03/31 08:20:02;;;;;;;5.07;2.50;;;21.60;51.60;;;;;;4978664;28;20374;-75
2024/03/31 08:22:28;;;;;;;2.90;2.42;;;21.50;51.40;;;;;;4994756;28;20045;-74
2024/03/31 08:24:55;;;;;;;5.70;3.17;;;21.50;51.50;;;;;;4976528;28;20026;-75
2024/03/31 08:27:21;;;;;;;4.85;3.40;;;21.50;50.80;;;;;;4990926;28;20644;-76
2024/03/31 08:29:48;;;;;;;5.93;3.35;;;21.40;50.70;;;;;;4984073;28;20921;-77
2024/03/31 08:32:14;;;;;;;5.72;3.40;;;21.30;50.60;;;;;;4982970;28;20508;-77
2024/03/31 08:34:40;;;;;;;3.95;2.47;;;21.30;50.50;;;;;;4994358;28;20034;-78
2024/03/31 08:37:06;;;;;;;3.40;2.72;;;21.30;50.80;;;;;;5009016;28;20081;-79
2024/03/31 08:39:32;;;;;;;4.20;3.20;;;21.30;50.60;;;;;;4992389;28;20044;-79
2024/03/31 08:41:59;;;;;;;4.32;3.22;;;21.30;50.60;;;;;;4983475;28;20053;-80
2024/03/31 08:44:25;;;;;;;7.35;3.92;;;21.30;50.60;;;;;;4983988;28;20033;-80
2024/03/31 08:46:55;;;;;;;5.78;3.50;;;21.30;50.60;;;;;;4993166;28;20575;-80
2024/03/31 08:49:21;;;;;;;5.03;3.38;;;21.30;50.80;;;;;;4976545;28;20039;-80
2024/03/31 08:51:48;;;;;;;4.65;3.00;;;21.30;51.10;;;;;;5010671;28;20133;-80
2024/03/31 08:54:14;;;;;;;5.70;3.75;;;21.20;51.30;;;;;;4981422;28;20162;-79
2024/03/31 08:56:41;;;;;;;6.35;3.85;;;21.20;51.10;;;;;;4986319;28;20413;-79
2024/03/31 08:59:07;;;;;;;4.82;3.50;;;21.20;50.60;;;;;;4994111;28;20037;-79
2024/03/31 09:01:37;;;;;;;5.93;3.83;;;21.10;50.50;;;;;;4995189;28;20455;-80
2024/03/31 09:04:04;;;;;;;6.70;3.35;;;21.10;50.30;;;;;;4995841;28;20531;-78
2024/03/31 09:06:30;;;;;;;7.97;3.10;;;21.00;50.20;;;;;;5009865;28;20149;-78
2024/03/31 09:09:01;;;;;;;5.22;3.60;;;21.00;50.40;;;;;;4993804;28;20035;-78
2024/03/31 09:11:29;;;;;;;5.18;3.50;;;21.00;50.30;;;;;;4994235;28;20050;-80
2024/03/31 09:13:56;;;;;;;7.68;3.00;;;20.90;50.50;;;;;;4995946;28;20047;-80
2024/03/31 09:16:23;;;;;;;3.88;2.75;;;20.90;50.60;;;;;;4995827;28;20030;-79
2024/03/31 09:18:49;;;;;;;5.43;3.40;;;20.90;50.80;;;;;;4993552;28;20042;-79
2024/03/31 09:21:15;;;;;;;3.72;3.00;;;20.90;50.90;;;;;;4993817;28;20125;-79
2024/03/31 09:23:41;;;;;;;6.70;3.20;;;20.90;50.70;;;;;;4994758;28;20039;-81
2024/03/31 09:26:07;;;;;;;4.68;2.75;;;20.80;50.70;;;;;;4995590;28;20651;-79
2024/03/31 09:28:37;;;;;;;5.13;2.97;;;20.80;50.50;;;;;;4995347;28;20034;-80
2024/03/31 09:31:04;;;;;;;5.47;3.58;;;20.80;50.70;;;;;;4993710;28;20030;-79
2024/03/31 09:33:38;;;;;;;5.90;3.38;;;20.70;50.50;;;;;;4995050;28;20041;-79
2024/03/31 09:36:05;;;;;;;4.27;3.40;;;20.70;50.30;;;;;;4994995;28;20080;-81
2024/03/31 09:38:32;;;;;;;5.18;3.45;;;20.60;50.50;;;;;;4995108;28;20856;-78
2024/03/31 09:40:58;;;;;;;5.93;3.15;;;20.60;50.80;;;;;;4994278;28;20058;-81
2024/03/31 09:43:26;;;;;;;5.13;3.10;;;20.60;50.80;;;;;;4995686;28;20026;-80
2024/03/31 09:45:52;;;;;;;6.80;3.17;;;20.60;50.50;;;;;;4995033;28;20061;-80
2024/03/31 09:48:25;;;;;;;5.20;2.97;;;20.50;50.00;;;;;;4995138;28;20049;-79
2024/03/31 09:51:03;;;;;;;6.00;3.28;;;20.50;50.20;;;;;;4992716;28;20042;-80
2024/03/31 09:53:31;;;;;;;6.88;3.20;;;20.40;50.10;;;;;;4995006;28;20501;-80
2024/03/31 09:56:02;;;;;;;3.03;2.70;;;20.40;50.40;;;;;;4994848;28;20038;-79
2024/03/31 09:58:34;;;;;;;5.10;2.80;;;20.40;50.30;;;;;;4995120;28;20038;-79
2024/03/31 10:01:06;;;;;;;5.65;2.47;;;20.30;50.20;;;;;;4995698;28;20121;-81
2024/03/31 10:03:40;;;;;;;2.78;2.30;;;20.40;50.50;;;;;;4994744;28;20042;-81
2024/03/31 10:06:08;;;;;;;3.50;2.85;;;20.30;49.80;;;;;;4995636;28;20353;-80
2024/03/31 10:08:34;;;;;;;5.22;2.85;;;20.30;49.60;;;;;;4994341;28;20090;-80
2024/03/31 10:11:01;;;;;;;4.75;2.35;;;20.20;49.60;;;;;;4992867;28;20626;-82
2024/03/31 10:13:28;;;;;;;4.57;2.50;;;20.20;49.60;;;;;;5010938;28;20037;-81
2024/03/31 10:15:58;;;;;;;8.43;2.33;;;20.20;49.90;;;;;;4995678;28;20046;-82
2024/03/31 10:18:24;;;;;;;4.75;2.45;;;20.20;49.70;;;;;;4993574;28;20846;-80
2024/03/31 10:20:51;;;;;;;6.47;2.60;;;20.10;49.70;;;;;;4994095;28;20040;-78
2024/03/31 10:23:19;;;;;;;4.88;3.42;;;20.10;50.00;;;;;;4994320;28;20042;-79
2024/03/31 10:25:46;;;;;;;3.78;3.40;;;20.10;50.10;;;;;;5009977;28;20029;-78
2024/03/31 10:28:13;;;;;;;6.20;3.60;;;20.00;50.30;;;;;;4994328;28;20056;-80
2024/03/31 10:30:40;;;;;;;6.15;3.67;;;20.00;50.40;;;;;;4994706;28;20031;-80
2024/03/31 10:33:07;;;;;;;4.85;3.58;;;20.00;51.10;;;;;;4994211;28;20085;-80
2024/03/31 10:35:35;;;;;;;6.35;3.58;;;20.00;50.60;;;;;;4995264;28;20053;-79
2024/03/31 10:38:01;;;;;;;3.58;3.05;;;20.00;50.80;;;;;;4993855;28;20169;-79
2024/03/31 10:40:28;;;;;;;5.25;3.40;;;20.00;50.70;;;;;;4995160;28;20037;-80
2024/03/31 10:42:55;;;;;;;4.38;3.47;;;20.00;50.70;;;;;;4993365;28;20034;-80
2024/03/31 10:45:24;;;;;;;7.72;3.88;;;20.00;50.70;;;;;;4993897;28;20034;-80
2024/03/31 10:47:52;;;;;;;7.22;3.63;;;19.90;50.60;;;;;;4993013;28;20038;-80
2024/03/31 10:50:25;;;;;;;4.93;3.90;;;19.90;50.40;;;;;;4995837;28;20513;-80
2024/03/31 10:52:52;;;;;;;6.78;3.55;;;19.90;50.30;;;;;;4995231;28;20082;-79
2024/03/31 10:55:20;;;;;;;3.47;3.17;;;19.90;50.60;;;;;;4998653;28;20041;-80
2024/03/31 10:58:00;;;;;;;6.47;3.60;;;19.90;50.80;;;;;;4997859;28;20026;-78
2024/03/31 11:00:26;;;;;;;7.45;3.17;;;19.90;50.70;;;;;;4981305;28;20026;-78
2024/03/31 11:02:53;;;;;;;5.88;3.45;;;19.90;50.70;;;;;;4988956;28;20192;-77
2024/03/31 11:05:21;;;;;;;6.85;3.53;;;19.80;50.60;;;;;;4998354;28;20027;-79
2024/03/31 11:07:48;;;;;;;7.68;3.63;;;19.80;50.30;;;;;;5010025;28;20072;-78
2024/03/31 11:10:15;;;;;;;7.15;3.83;;;19.80;50.50;;;;;;4976292;28;20034;-77
2024/03/31 11:12:46;;;;;;;7.03;3.67;;;19.80;50.50;;;;;;4993792;28;20038;-78
2024/03/31 11:15:14;;;;;;;7.82;3.78;;;19.80;50.80;;;;;;4982676;28;20097;-79
2024/03/31 11:17:42;;;;;;;4.25;3.45;;;19.80;50.60;;;;;;4987630;28;20041;-79
2024/03/31 11:20:09;;;;;;;7.70;4.07;;;19.70;50.60;;;;;;4991638;28;20061;-76
2024/03/31 11:22:36;;;;;;;6.70;3.70;;;19.70;50.60;;;;;;4982481;28;20077;-78
2024/03/31 11:25:04;;;;;;;6.05;4.18;;;19.70;50.80;;;;;;4996524;28;20026;-77
2024/03/31 11:27:31;;;;;;;5.68;3.72;;;19.70;51.50;;;;;;4980800;28;20051;-77
2024/03/31 11:30:02;;;;;;;5.53;4.00;;;19.70;50.70;;;;;;4989313;28;20038;-77
2024/03/31 11:32:31;;;;;;;7.78;3.97;;;19.70;50.50;;;;;;4986181;28;20035;-78
2024/03/31 11:34:59;;;;;;;6.93;4.05;;;19.70;50.60;;;;;;4994217;28;20528;-78
2024/03/31 11:37:25;;;;;;;5.18;3.33;;;19.60;50.50;;;;;;4995306;28;20037;-76
2024/03/31 11:39:58;;;;;;;7.03;3.88;;;19.60;50.30;;;;;;4975700;28;20133;-77
2024/03/31 11:42:26;;;;;;;7.63;3.70;;;19.60;50.50;;;;;;4990731;28;20037;-77
2024/03/31 11:44:55;;;;;;;8.25;3.90;;;19.60;50.40;;;;;;4984183;28;20523;-77
2024/03/31 11:47:22;;;;;;;4.95;3.72;;;19.60;50.40;;;;;;4981973;28;20456;-77
2024/03/31 11:49:48;;;;;;;5.72;3.95;;;19.60;50.30;;;;;;4991629;28;20103;-76
2024/03/31 11:52:15;;;;;;;6.10;3.42;;;19.60;50.50;;;;;;4975798;28;20034;-78
2024/03/31 11:54:41;;;;;;;5.75;3.30;;;19.50;50.30;;;;;;4992831;28;21040;-78
2024/03/31 11:57:09;;;;;;;6.03;3.38;;;19.60;50.60;;;;;;4981684;28;20378;-78
2024/03/31 11:59:35;;;;;;;4.43;3.10;;;19.60;50.90;;;;;;4983234;28;20037;-77
2024/03/31 12:02:01;;;;;;;6.47;3.03;;;19.50;50.20;;;;;;4986512;28;20165;-77
2024/03/31 12:04:28;;;;;;;5.53;3.40;;;19.60;50.40;;;;;;4973059;28;20034;-77
2024/03/31 12:06:55;;;;;;;4.30;3.10;;;19.60;50.30;;;;;;4975177;28;20070;-78
2024/03/31 12:09:23;;;;;;;2.88;2.50;;;19.60;50.30;;;;;;4987832;28;21320;-77
2024/03/31 12:11:50;;;;;;;4.03;2.90;;;19.60;50.60;;;;;;4992374;28;20038;-77
2024/03/31 12:14:17;;;;;;;5.75;2.90;;;19.50;50.50;;;;;;4992638;28;20038;-77
2024/03/31 12:16:44;;;;;;;4.10;2.42;;;19.50;49.90;;;;;;4992976;28;20034;-77
2024/03/31 12:19:11;;;;;;;4.20;2.88;;;19.50;50.00;;;;;;4988947;28;20038;-76
2024/03/31 12:21:38;;;;;;;3.53;3.22;;;19.50;49.80;;;;;;4987784;28;20420;-79
2024/03/31 12:24:05;;;;;;;5.53;3.13;;;19.50;49.80;;;;;;4984667;28;20034;-77
2024/03/31 12:26:32;;;;;;;5.97;3.17;;;19.50;49.60;;;;;;4992086;28;20093;-76
2024/03/31 12:28:58;;;;;;;3.92;2.65;;;19.50;49.80;;;;;;4992453;28;20084;-77
2024/03/31 12:31:26;;;;;;;4.68;2.50;;;19.50;50.10;;;;;;4992820;28;20470;-76
2024/03/31 12:33:53;;;;;;;7.38;2.90;;;19.50;50.10;;;;;;4992900;28;20501;-77
2024/03/31 12:36:20;;;;;;;3.30;2.88;;;19.50;50.00;;;;;;4994108;28;20065;-78
2024/03/31 12:38:46;;;;;;;3.72;2.45;;;19.50;50.10;;;;;;4993873;28;20119;-77
2024/03/31 12:41:16;;;;;;;3.97;2.60;;;19.50;50.00;;;;;;5008439;28;20045;-78
2024/03/31 12:43:43;;;;;;;4.35;2.70;;;19.50;49.70;;;;;;4991348;28;20093;-78
2024/03/31 12:46:11;;;;;;;4.53;2.63;;;19.50;50.00;;;;;;4989251;28;21422;-79